sensor_id;sensor_type;location;lat;lon;timestamp;P1;durP1;ratioP1;P2;durP2;ratioP2
72920;SDS011;61064;51.654;5.476;2023-07-28T00:02:06;13.57;;;8.60;;
72920;SDS011;61064;51.654;5.476;2023-07-28T00:04:34;14.70;;;8.10;;
72920;SDS011;61064;51.654;5.476;2023-07-28T00:07:00;13.03;;;8.10;;
72920;SDS011;61064;51.654;5.476;2023-07-28T00:09:25;14.87;;;8.53;;
72920;SDS011;61064;51.654;5.476;2023-07-28T00:11:51;13.68;;;8.27;;
72920;SDS011;61064;51.654;5.476;2023-07-28T00:14:19;16.35;;;8.27;;
72920;SDS011;61064;51.654;5.476;2023-07-28T00:16:44;16.13;;;8.43;;
72920;SDS011;61064;51.654;5.476;2023-07-28T00:19:09;15.13;;;8.18;;
72920;SDS011;61064;51.654;5.476;2023-07-28T00:21:35;14.50;;;8.00;;
72920;SDS011;61064;51.654;5.476;2023-07-28T00:24:01;13.57;;;8.03;;
72920;SDS011;61064;51.654;5.476;2023-07-28T00:26:26;17.27;;;8.80;;
72920;SDS011;61064;51.654;5.476;2023-07-28T00:28:53;13.65;;;8.38;;
72920;SDS011;61064;51.654;5.476;2023-07-28T00:31:18;13.57;;;8.00;;
72920;SDS011;61064;51.654;5.476;2023-07-28T00:33:43;15.17;;;8.73;;
72920;SDS011;61064;51.654;5.476;2023-07-28T00:36:09;15.97;;;8.27;;
72920;SDS011;61064;51.654;5.476;2023-07-28T00:38:37;14.13;;;8.25;;
72920;SDS011;61064;51.654;5.476;2023-07-28T00:41:02;14.57;;;8.13;;
72920;SDS011;61064;51.654;5.476;2023-07-28T00:43:28;14.05;;;8.32;;
72920;SDS011;61064;51.654;5.476;2023-07-28T00:45:54;14.33;;;7.80;;
72920;SDS011;61064;51.654;5.476;2023-07-28T00:48:20;12.38;;;7.47;;
72920;SDS011;61064;51.654;5.476;2023-07-28T00:50:45;13.10;;;7.70;;
72920;SDS011;61064;51.654;5.476;2023-07-28T00:53:13;14.02;;;7.60;;
72920;SDS011;61064;51.654;5.476;2023-07-28T00:55:39;14.30;;;8.30;;
72920;SDS011;61064;51.654;5.476;2023-07-28T00:58:04;13.93;;;7.50;;
72920;SDS011;61064;51.654;5.476;2023-07-28T01:00:30;11.63;;;6.93;;
72920;SDS011;61064;51.654;5.476;2023-07-28T01:02:55;13.48;;;7.40;;
72920;SDS011;61064;51.654;5.476;2023-07-28T01:05:22;12.32;;;7.22;;
72920;SDS011;61064;51.654;5.476;2023-07-28T01:07:54;13.87;;;7.30;;
72920;SDS011;61064;51.654;5.476;2023-07-28T01:10:30;12.95;;;7.20;;
72920;SDS011;61064;51.654;5.476;2023-07-28T01:12:59;13.05;;;7.10;;
72920;SDS011;61064;51.654;5.476;2023-07-28T01:15:25;13.37;;;7.20;;
72920;SDS011;61064;51.654;5.476;2023-07-28T01:17:51;13.65;;;7.10;;
72920;SDS011;61064;51.654;5.476;2023-07-28T01:28:50;14.75;;;7.30;;
72920;SDS011;61064;51.654;5.476;2023-07-28T01:31:17;12.57;;;7.68;;
72920;SDS011;61064;51.654;5.476;2023-07-28T01:33:42;12.17;;;6.97;;
72920;SDS011;61064;51.654;5.476;2023-07-28T01:36:08;11.60;;;7.07;;
72920;SDS011;61064;51.654;5.476;2023-07-28T01:38:33;14.17;;;7.33;;
72920;SDS011;61064;51.654;5.476;2023-07-28T01:40:59;14.97;;;6.93;;
72920;SDS011;61064;51.654;5.476;2023-07-28T01:43:24;12.87;;;7.53;;
72920;SDS011;61064;51.654;5.476;2023-07-28T01:45:51;13.45;;;7.45;;
72920;SDS011;61064;51.654;5.476;2023-07-28T01:48:17;13.93;;;7.47;;
72920;SDS011;61064;51.654;5.476;2023-07-28T01:50:42;13.60;;;7.32;;
72920;SDS011;61064;51.654;5.476;2023-07-28T01:53:08;13.93;;;7.70;;
72920;SDS011;61064;51.654;5.476;2023-07-28T01:55:34;12.63;;;7.15;;
72920;SDS011;61064;51.654;5.476;2023-07-28T01:58:00;13.37;;;7.10;;
72920;SDS011;61064;51.654;5.476;2023-07-28T02:00:26;14.32;;;8.20;;
72920;SDS011;61064;51.654;5.476;2023-07-28T02:02:52;13.38;;;7.13;;
72920;SDS011;61064;51.654;5.476;2023-07-28T02:05:19;16.13;;;7.28;;
72920;SDS011;61064;51.654;5.476;2023-07-28T02:07:44;14.47;;;7.10;;
72920;SDS011;61064;51.654;5.476;2023-07-28T02:10:12;15.45;;;7.78;;
72920;SDS011;61064;51.654;5.476;2023-07-28T02:12:38;14.47;;;7.83;;
72920;SDS011;61064;51.654;5.476;2023-07-28T02:15:05;16.15;;;7.50;;
72920;SDS011;61064;51.654;5.476;2023-07-28T02:17:31;14.45;;;8.05;;
72920;SDS011;61064;51.654;5.476;2023-07-28T02:19:56;16.47;;;7.73;;
72920;SDS011;61064;51.654;5.476;2023-07-28T02:22:22;14.83;;;7.27;;
72920;SDS011;61064;51.654;5.476;2023-07-28T02:24:47;16.60;;;8.30;;
72920;SDS011;61064;51.654;5.476;2023-07-28T02:27:13;14.50;;;7.50;;
72920;SDS011;61064;51.654;5.476;2023-07-28T02:29:38;19.57;;;7.80;;
72920;SDS011;61064;51.654;5.476;2023-07-28T02:32:04;14.97;;;8.17;;
72920;SDS011;61064;51.654;5.476;2023-07-28T02:34:29;17.48;;;7.60;;
72920;SDS011;61064;51.654;5.476;2023-07-28T02:36:55;16.47;;;7.87;;
72920;SDS011;61064;51.654;5.476;2023-07-28T02:39:20;16.67;;;8.03;;
72920;SDS011;61064;51.654;5.476;2023-07-28T02:41:46;16.77;;;7.90;;
72920;SDS011;61064;51.654;5.476;2023-07-28T02:44:11;16.60;;;7.80;;
72920;SDS011;61064;51.654;5.476;2023-07-28T02:46:37;17.47;;;7.73;;
72920;SDS011;61064;51.654;5.476;2023-07-28T02:49:02;16.10;;;7.50;;
72920;SDS011;61064;51.654;5.476;2023-07-28T02:51:29;15.80;;;7.53;;
72920;SDS011;61064;51.654;5.476;2023-07-28T02:53:55;16.55;;;7.72;;
72920;SDS011;61064;51.654;5.476;2023-07-28T02:56:20;17.37;;;7.77;;
72920;SDS011;61064;51.654;5.476;2023-07-28T02:58:47;18.05;;;7.80;;
72920;SDS011;61064;51.654;5.476;2023-07-28T03:01:13;18.13;;;7.82;;
72920;SDS011;61064;51.654;5.476;2023-07-28T03:03:38;17.53;;;7.83;;
72920;SDS011;61064;51.654;5.476;2023-07-28T03:06:04;17.47;;;7.87;;
72920;SDS011;61064;51.654;5.476;2023-07-28T03:08:30;16.63;;;7.65;;
72920;SDS011;61064;51.654;5.476;2023-07-28T03:10:56;17.87;;;7.80;;
72920;SDS011;61064;51.654;5.476;2023-07-28T03:13:24;20.07;;;8.07;;
72920;SDS011;61064;51.654;5.476;2023-07-28T03:15:50;17.30;;;7.97;;
72920;SDS011;61064;51.654;5.476;2023-07-28T03:18:15;17.90;;;8.13;;
72920;SDS011;61064;51.654;5.476;2023-07-28T03:20:40;20.23;;;7.93;;
72920;SDS011;61064;51.654;5.476;2023-07-28T03:23:06;24.00;;;8.47;;
72920;SDS011;61064;51.654;5.476;2023-07-28T03:25:31;17.87;;;7.93;;
72920;SDS011;61064;51.654;5.476;2023-07-28T03:27:57;19.30;;;7.88;;
72920;SDS011;61064;51.654;5.476;2023-07-28T03:30:22;20.23;;;7.83;;
72920;SDS011;61064;51.654;5.476;2023-07-28T03:32:47;20.93;;;8.53;;
72920;SDS011;61064;51.654;5.476;2023-07-28T03:35:13;23.07;;;8.63;;
72920;SDS011;61064;51.654;5.476;2023-07-28T03:37:38;24.17;;;8.90;;
72920;SDS011;61064;51.654;5.476;2023-07-28T03:40:04;22.77;;;8.27;;
72920;SDS011;61064;51.654;5.476;2023-07-28T03:42:30;24.80;;;8.80;;
72920;SDS011;61064;51.654;5.476;2023-07-28T03:44:57;25.33;;;8.93;;
72920;SDS011;61064;51.654;5.476;2023-07-28T03:47:22;25.20;;;9.90;;
72920;SDS011;61064;51.654;5.476;2023-07-28T03:49:48;26.17;;;9.60;;
72920;SDS011;61064;51.654;5.476;2023-07-28T03:52:13;24.07;;;8.83;;
72920;SDS011;61064;51.654;5.476;2023-07-28T03:54:38;23.20;;;9.27;;
72920;SDS011;61064;51.654;5.476;2023-07-28T03:57:04;24.10;;;9.55;;
72920;SDS011;61064;51.654;5.476;2023-07-28T03:59:29;26.67;;;9.77;;
72920;SDS011;61064;51.654;5.476;2023-07-28T04:01:55;27.07;;;9.87;;
72920;SDS011;61064;51.654;5.476;2023-07-28T04:04:20;25.13;;;10.10;;
72920;SDS011;61064;51.654;5.476;2023-07-28T04:06:46;24.75;;;9.77;;
72920;SDS011;61064;51.654;5.476;2023-07-28T04:09:15;27.33;;;9.73;;
72920;SDS011;61064;51.654;5.476;2023-07-28T04:11:41;27.02;;;9.70;;
72920;SDS011;61064;51.654;5.476;2023-07-28T04:14:07;26.90;;;10.52;;
72920;SDS011;61064;51.654;5.476;2023-07-28T04:16:32;26.33;;;10.97;;
72920;SDS011;61064;51.654;5.476;2023-07-28T04:18:58;28.15;;;10.80;;
72920;SDS011;61064;51.654;5.476;2023-07-28T04:21:24;28.33;;;10.90;;
72920;SDS011;61064;51.654;5.476;2023-07-28T04:23:49;26.67;;;10.83;;
72920;SDS011;61064;51.654;5.476;2023-07-28T04:26:16;26.85;;;10.80;;
72920;SDS011;61064;51.654;5.476;2023-07-28T04:28:42;29.10;;;11.53;;
72920;SDS011;61064;51.654;5.476;2023-07-28T04:31:08;26.20;;;10.57;;
72920;SDS011;61064;51.654;5.476;2023-07-28T04:33:33;29.50;;;11.93;;
72920;SDS011;61064;51.654;5.476;2023-07-28T04:35:59;26.65;;;10.75;;
72920;SDS011;61064;51.654;5.476;2023-07-28T04:38:24;29.30;;;10.93;;
72920;SDS011;61064;51.654;5.476;2023-07-28T04:40:50;26.73;;;11.00;;
72920;SDS011;61064;51.654;5.476;2023-07-28T04:43:15;25.63;;;10.68;;
72920;SDS011;61064;51.654;5.476;2023-07-28T04:45:40;30.37;;;10.53;;
72920;SDS011;61064;51.654;5.476;2023-07-28T04:48:06;30.37;;;11.00;;
72920;SDS011;61064;51.654;5.476;2023-07-28T04:50:31;26.47;;;10.73;;
72920;SDS011;61064;51.654;5.476;2023-07-28T04:52:58;26.00;;;10.77;;
72920;SDS011;61064;51.654;5.476;2023-07-28T04:55:24;29.45;;;11.55;;
72920;SDS011;61064;51.654;5.476;2023-07-28T04:57:51;30.40;;;11.27;;
72920;SDS011;61064;51.654;5.476;2023-07-28T05:00:17;29.55;;;10.73;;
72920;SDS011;61064;51.654;5.476;2023-07-28T05:02:42;26.17;;;10.83;;
72920;SDS011;61064;51.654;5.476;2023-07-28T05:05:08;27.57;;;10.77;;
72920;SDS011;61064;51.654;5.476;2023-07-28T05:07:33;30.97;;;11.67;;
72920;SDS011;61064;51.654;5.476;2023-07-28T05:09:59;27.08;;;10.82;;
72920;SDS011;61064;51.654;5.476;2023-07-28T05:12:24;29.33;;;11.17;;
72920;SDS011;61064;51.654;5.476;2023-07-28T05:14:49;28.10;;;10.70;;
72920;SDS011;61064;51.654;5.476;2023-07-28T05:17:15;29.70;;;11.30;;
72920;SDS011;61064;51.654;5.476;2023-07-28T05:19:40;30.73;;;11.43;;
72920;SDS011;61064;51.654;5.476;2023-07-28T05:22:06;25.83;;;10.75;;
72920;SDS011;61064;51.654;5.476;2023-07-28T05:24:31;26.40;;;10.70;;
72920;SDS011;61064;51.654;5.476;2023-07-28T05:26:58;27.30;;;11.50;;
72920;SDS011;61064;51.654;5.476;2023-07-28T05:29:23;28.00;;;10.67;;
72920;SDS011;61064;51.654;5.476;2023-07-28T05:31:49;29.73;;;11.50;;
72920;SDS011;61064;51.654;5.476;2023-07-28T05:34:14;28.50;;;11.00;;
72920;SDS011;61064;51.654;5.476;2023-07-28T05:36:40;26.75;;;10.60;;
72920;SDS011;61064;51.654;5.476;2023-07-28T05:39:08;28.70;;;11.10;;
72920;SDS011;61064;51.654;5.476;2023-07-28T05:41:36;28.83;;;11.35;;
72920;SDS011;61064;51.654;5.476;2023-07-28T05:44:02;26.27;;;11.27;;
72920;SDS011;61064;51.654;5.476;2023-07-28T05:46:28;26.73;;;10.95;;
72920;SDS011;61064;51.654;5.476;2023-07-28T05:48:54;29.23;;;11.27;;
72920;SDS011;61064;51.654;5.476;2023-07-28T05:51:21;26.42;;;10.70;;
72920;SDS011;61064;51.654;5.476;2023-07-28T05:53:47;25.92;;;10.75;;
72920;SDS011;61064;51.654;5.476;2023-07-28T05:56:12;33.57;;;12.10;;
72920;SDS011;61064;51.654;5.476;2023-07-28T05:58:37;27.20;;;11.27;;
72920;SDS011;61064;51.654;5.476;2023-07-28T06:01:03;29.67;;;11.73;;
72920;SDS011;61064;51.654;5.476;2023-07-28T06:03:28;31.43;;;12.57;;
72920;SDS011;61064;51.654;5.476;2023-07-28T06:05:54;29.17;;;11.97;;
72920;SDS011;61064;51.654;5.476;2023-07-28T06:08:19;29.27;;;12.40;;
72920;SDS011;61064;51.654;5.476;2023-07-28T06:10:45;29.83;;;11.73;;
72920;SDS011;61064;51.654;5.476;2023-07-28T06:13:10;29.67;;;13.23;;
72920;SDS011;61064;51.654;5.476;2023-07-28T06:15:38;31.30;;;12.60;;
72920;SDS011;61064;51.654;5.476;2023-07-28T06:18:04;28.00;;;12.38;;
72920;SDS011;61064;51.654;5.476;2023-07-28T06:20:30;27.95;;;12.82;;
72920;SDS011;61064;51.654;5.476;2023-07-28T06:22:55;31.70;;;12.20;;
72920;SDS011;61064;51.654;5.476;2023-07-28T06:25:20;27.93;;;11.20;;
72920;SDS011;61064;51.654;5.476;2023-07-28T06:27:46;25.57;;;11.87;;
72920;SDS011;61064;51.654;5.476;2023-07-28T06:30:12;28.95;;;12.73;;
72920;SDS011;61064;51.654;5.476;2023-07-28T06:32:37;30.17;;;12.80;;
72920;SDS011;61064;51.654;5.476;2023-07-28T06:35:03;32.42;;;13.73;;
72920;SDS011;61064;51.654;5.476;2023-07-28T06:37:30;31.20;;;14.25;;
72920;SDS011;61064;51.654;5.476;2023-07-28T06:39:55;30.53;;;14.00;;
72920;SDS011;61064;51.654;5.476;2023-07-28T06:42:22;28.67;;;15.10;;
72920;SDS011;61064;51.654;5.476;2023-07-28T06:44:52;35.30;;;15.15;;
72920;SDS011;61064;51.654;5.476;2023-07-28T06:47:17;33.03;;;14.80;;
72920;SDS011;61064;51.654;5.476;2023-07-28T06:49:43;34.70;;;15.15;;
72920;SDS011;61064;51.654;5.476;2023-07-28T06:52:09;36.90;;;16.80;;
72920;SDS011;61064;51.654;5.476;2023-07-28T06:54:35;34.03;;;16.20;;
72920;SDS011;61064;51.654;5.476;2023-07-28T06:57:01;37.53;;;17.05;;
72920;SDS011;61064;51.654;5.476;2023-07-28T06:59:27;39.27;;;17.67;;
72920;SDS011;61064;51.654;5.476;2023-07-28T07:01:52;38.72;;;17.92;;
72920;SDS011;61064;51.654;5.476;2023-07-28T07:04:18;42.87;;;19.00;;
72920;SDS011;61064;51.654;5.476;2023-07-28T07:06:44;41.33;;;19.73;;
72920;SDS011;61064;51.654;5.476;2023-07-28T07:09:10;40.37;;;19.60;;
72920;SDS011;61064;51.654;5.476;2023-07-28T07:11:39;45.63;;;20.05;;
72920;SDS011;61064;51.654;5.476;2023-07-28T07:14:05;45.53;;;20.00;;
72920;SDS011;61064;51.654;5.476;2023-07-28T07:16:30;43.80;;;20.00;;
72920;SDS011;61064;51.654;5.476;2023-07-28T07:18:56;43.77;;;20.17;;
72920;SDS011;61064;51.654;5.476;2023-07-28T07:21:21;47.60;;;20.30;;
72920;SDS011;61064;51.654;5.476;2023-07-28T07:23:47;48.97;;;20.90;;
72920;SDS011;61064;51.654;5.476;2023-07-28T07:26:14;46.08;;;20.88;;
72920;SDS011;61064;51.654;5.476;2023-07-28T07:28:40;45.90;;;20.73;;
72920;SDS011;61064;51.654;5.476;2023-07-28T07:31:11;48.57;;;21.27;;
72920;SDS011;61064;51.654;5.476;2023-07-28T07:33:38;46.28;;;20.92;;
72920;SDS011;61064;51.654;5.476;2023-07-28T07:36:04;44.07;;;21.13;;
72920;SDS011;61064;51.654;5.476;2023-07-28T07:38:29;45.03;;;20.30;;
72920;SDS011;61064;51.654;5.476;2023-07-28T07:40:55;46.77;;;21.40;;
72920;SDS011;61064;51.654;5.476;2023-07-28T07:43:20;45.17;;;20.93;;
72920;SDS011;61064;51.654;5.476;2023-07-28T07:45:46;50.13;;;20.80;;
72920;SDS011;61064;51.654;5.476;2023-07-28T07:48:15;44.65;;;20.48;;
72920;SDS011;61064;51.654;5.476;2023-07-28T07:50:40;41.97;;;19.47;;
72920;SDS011;61064;51.654;5.476;2023-07-28T07:53:05;43.87;;;20.77;;
72920;SDS011;61064;51.654;5.476;2023-07-28T07:55:31;43.43;;;19.37;;
72920;SDS011;61064;51.654;5.476;2023-07-28T07:57:56;41.40;;;19.03;;
72920;SDS011;61064;51.654;5.476;2023-07-28T08:00:23;43.92;;;19.05;;
72920;SDS011;61064;51.654;5.476;2023-07-28T08:02:49;44.63;;;19.70;;
72920;SDS011;61064;51.654;5.476;2023-07-28T08:05:14;42.20;;;19.00;;
72920;SDS011;61064;51.654;5.476;2023-07-28T08:07:40;42.40;;;18.83;;
72920;SDS011;61064;51.654;5.476;2023-07-28T08:10:06;38.50;;;18.73;;
72920;SDS011;61064;51.654;5.476;2023-07-28T08:12:32;37.97;;;19.27;;
72920;SDS011;61064;51.654;5.476;2023-07-28T08:14:57;35.50;;;18.20;;
72920;SDS011;61064;51.654;5.476;2023-07-28T08:17:23;34.80;;;18.15;;
72920;SDS011;61064;51.654;5.476;2023-07-28T08:19:48;38.27;;;19.10;;
72920;SDS011;61064;51.654;5.476;2023-07-28T08:22:14;41.13;;;18.10;;
72920;SDS011;61064;51.654;5.476;2023-07-28T08:24:39;36.53;;;18.00;;
72920;SDS011;61064;51.654;5.476;2023-07-28T08:27:05;39.17;;;18.57;;
72920;SDS011;61064;51.654;5.476;2023-07-28T08:29:30;36.58;;;19.00;;
72920;SDS011;61064;51.654;5.476;2023-07-28T08:31:56;36.20;;;18.97;;
72920;SDS011;61064;51.654;5.476;2023-07-28T08:34:21;34.93;;;18.23;;
72920;SDS011;61064;51.654;5.476;2023-07-28T08:36:47;37.45;;;18.58;;
72920;SDS011;61064;51.654;5.476;2023-07-28T08:39:12;33.33;;;18.73;;
72920;SDS011;61064;51.654;5.476;2023-07-28T08:41:40;36.35;;;18.65;;
72920;SDS011;61064;51.654;5.476;2023-07-28T08:44:06;35.87;;;18.60;;
72920;SDS011;61064;51.654;5.476;2023-07-28T08:46:32;33.05;;;18.33;;
72920;SDS011;61064;51.654;5.476;2023-07-28T08:48:59;33.58;;;18.02;;
72920;SDS011;61064;51.654;5.476;2023-07-28T08:51:25;34.93;;;18.13;;
72920;SDS011;61064;51.654;5.476;2023-07-28T08:53:50;32.42;;;17.23;;
72920;SDS011;61064;51.654;5.476;2023-07-28T08:56:16;31.70;;;17.47;;
72920;SDS011;61064;51.654;5.476;2023-07-28T08:58:41;35.30;;;18.02;;
72920;SDS011;61064;51.654;5.476;2023-07-28T09:01:07;31.30;;;17.23;;
72920;SDS011;61064;51.654;5.476;2023-07-28T09:03:32;33.27;;;17.13;;
72920;SDS011;61064;51.654;5.476;2023-07-28T09:06:02;30.80;;;16.67;;
72920;SDS011;61064;51.654;5.476;2023-07-28T09:08:31;30.50;;;17.60;;
72920;SDS011;61064;51.654;5.476;2023-07-28T09:10:57;33.03;;;17.15;;
72920;SDS011;61064;51.654;5.476;2023-07-28T09:13:30;30.23;;;16.80;;
72920;SDS011;61064;51.654;5.476;2023-07-28T09:16:01;28.80;;;15.60;;
72920;SDS011;61064;51.654;5.476;2023-07-28T09:18:26;29.50;;;16.40;;
72920;SDS011;61064;51.654;5.476;2023-07-28T09:20:55;32.83;;;16.80;;
72920;SDS011;61064;51.654;5.476;2023-07-28T09:23:27;30.08;;;16.42;;
72920;SDS011;61064;51.654;5.476;2023-07-28T09:25:59;30.52;;;16.63;;
72920;SDS011;61064;51.654;5.476;2023-07-28T09:28:38;29.27;;;16.95;;
72920;SDS011;61064;51.654;5.476;2023-07-28T09:31:04;25.90;;;14.97;;
72920;SDS011;61064;51.654;5.476;2023-07-28T09:33:31;25.33;;;14.70;;
72920;SDS011;61064;51.654;5.476;2023-07-28T09:36:06;26.38;;;15.18;;
72920;SDS011;61064;51.654;5.476;2023-07-28T09:38:34;28.20;;;15.68;;
72920;SDS011;61064;51.654;5.476;2023-07-28T09:41:02;26.40;;;14.93;;
72920;SDS011;61064;51.654;5.476;2023-07-28T09:43:32;26.07;;;15.17;;
72920;SDS011;61064;51.654;5.476;2023-07-28T09:45:58;27.67;;;15.32;;
72920;SDS011;61064;51.654;5.476;2023-07-28T09:48:24;27.88;;;14.63;;
72920;SDS011;61064;51.654;5.476;2023-07-28T09:50:53;26.53;;;15.17;;
72920;SDS011;61064;51.654;5.476;2023-07-28T09:53:18;26.45;;;14.18;;
72920;SDS011;61064;51.654;5.476;2023-07-28T09:55:46;28.13;;;15.32;;
72920;SDS011;61064;51.654;5.476;2023-07-28T09:58:15;26.30;;;14.77;;
72920;SDS011;61064;51.654;5.476;2023-07-28T10:00:43;25.33;;;14.73;;
72920;SDS011;61064;51.654;5.476;2023-07-28T10:03:09;25.70;;;15.48;;
72920;SDS011;61064;51.654;5.476;2023-07-28T10:05:36;25.08;;;15.55;;
72920;SDS011;61064;51.654;5.476;2023-07-28T10:08:02;27.73;;;16.63;;
72920;SDS011;61064;51.654;5.476;2023-07-28T10:10:28;27.07;;;15.57;;
72920;SDS011;61064;51.654;5.476;2023-07-28T10:12:54;25.52;;;15.95;;
72920;SDS011;61064;51.654;5.476;2023-07-28T10:15:28;26.33;;;15.80;;
72920;SDS011;61064;51.654;5.476;2023-07-28T10:17:55;25.17;;;15.82;;
72920;SDS011;61064;51.654;5.476;2023-07-28T10:20:35;25.70;;;16.08;;
72920;SDS011;61064;51.654;5.476;2023-07-28T10:23:04;25.13;;;15.43;;
72920;SDS011;61064;51.654;5.476;2023-07-28T10:25:31;25.92;;;16.10;;
72920;SDS011;61064;51.654;5.476;2023-07-28T10:27:59;25.40;;;16.07;;
72920;SDS011;61064;51.654;5.476;2023-07-28T10:30:24;25.17;;;15.43;;
72920;SDS011;61064;51.654;5.476;2023-07-28T10:32:50;25.67;;;15.87;;
72920;SDS011;61064;51.654;5.476;2023-07-28T10:37:43;24.57;;;15.03;;
72920;SDS011;61064;51.654;5.476;2023-07-28T10:42:51;24.33;;;15.27;;
72920;SDS011;61064;51.654;5.476;2023-07-28T10:45:26;24.33;;;14.52;;
72920;SDS011;61064;51.654;5.476;2023-07-28T10:47:54;21.48;;;13.77;;
72920;SDS011;61064;51.654;5.476;2023-07-28T10:50:27;21.70;;;13.63;;
72920;SDS011;61064;51.654;5.476;2023-07-28T10:52:54;19.92;;;12.95;;
72920;SDS011;61064;51.654;5.476;2023-07-28T10:55:30;20.97;;;13.57;;
72920;SDS011;61064;51.654;5.476;2023-07-28T10:57:55;22.88;;;14.30;;
72920;SDS011;61064;51.654;5.476;2023-07-28T11:00:25;23.55;;;15.10;;
72920;SDS011;61064;51.654;5.476;2023-07-28T11:02:54;22.58;;;13.98;;
72920;SDS011;61064;51.654;5.476;2023-07-28T11:05:20;20.20;;;12.85;;
72920;SDS011;61064;51.654;5.476;2023-07-28T11:07:56;19.47;;;12.53;;
72920;SDS011;61064;51.654;5.476;2023-07-28T11:10:24;19.00;;;12.70;;
72920;SDS011;61064;51.654;5.476;2023-07-28T11:12:53;19.20;;;12.32;;
72920;SDS011;61064;51.654;5.476;2023-07-28T11:15:19;17.88;;;11.93;;
72920;SDS011;61064;51.654;5.476;2023-07-28T11:17:50;19.67;;;12.70;;
72920;SDS011;61064;51.654;5.476;2023-07-28T11:20:20;18.80;;;11.90;;
72920;SDS011;61064;51.654;5.476;2023-07-28T11:22:53;17.50;;;11.38;;
72920;SDS011;61064;51.654;5.476;2023-07-28T11:25:24;15.27;;;10.48;;
72920;SDS011;61064;51.654;5.476;2023-07-28T11:27:51;16.08;;;10.88;;
72920;SDS011;61064;51.654;5.476;2023-07-28T11:30:17;16.80;;;11.40;;
72920;SDS011;61064;51.654;5.476;2023-07-28T11:32:45;17.65;;;11.40;;
72920;SDS011;61064;51.654;5.476;2023-07-28T11:35:13;13.23;;;8.82;;
72920;SDS011;61064;51.654;5.476;2023-07-28T11:37:41;14.13;;;9.68;;
72920;SDS011;61064;51.654;5.476;2023-07-28T11:40:09;12.23;;;8.70;;
72920;SDS011;61064;51.654;5.476;2023-07-28T11:42:39;10.80;;;7.63;;
72920;SDS011;61064;51.654;5.476;2023-07-28T11:45:08;11.00;;;7.50;;
72920;SDS011;61064;51.654;5.476;2023-07-28T11:47:35;14.23;;;9.63;;
72920;SDS011;61064;51.654;5.476;2023-07-28T11:50:01;14.33;;;9.97;;
72920;SDS011;61064;51.654;5.476;2023-07-28T11:52:32;15.77;;;9.80;;
72920;SDS011;61064;51.654;5.476;2023-07-28T11:55:00;16.35;;;10.65;;
72920;SDS011;61064;51.654;5.476;2023-07-28T11:57:26;11.65;;;7.82;;
72920;SDS011;61064;51.654;5.476;2023-07-28T11:59:58;13.00;;;8.10;;
72920;SDS011;61064;51.654;5.476;2023-07-28T12:02:27;10.20;;;6.70;;
72920;SDS011;61064;51.654;5.476;2023-07-28T12:04:54;8.27;;;5.72;;
72920;SDS011;61064;51.654;5.476;2023-07-28T12:07:30;9.07;;;6.20;;
72920;SDS011;61064;51.654;5.476;2023-07-28T12:09:57;8.13;;;5.45;;
72920;SDS011;61064;51.654;5.476;2023-07-28T12:12:31;7.13;;;4.38;;
72920;SDS011;61064;51.654;5.476;2023-07-28T12:15:20;6.87;;;3.70;;
72920;SDS011;61064;51.654;5.476;2023-07-28T12:18:11;8.23;;;3.45;;
72920;SDS011;61064;51.654;5.476;2023-07-28T12:20:42;5.70;;;2.70;;
72920;SDS011;61064;51.654;5.476;2023-07-28T12:23:23;6.55;;;3.10;;
72920;SDS011;61064;51.654;5.476;2023-07-28T12:25:49;5.88;;;2.97;;
72920;SDS011;61064;51.654;5.476;2023-07-28T12:28:23;6.70;;;2.90;;
72920;SDS011;61064;51.654;5.476;2023-07-28T12:30:50;6.03;;;3.35;;
72920;SDS011;61064;51.654;5.476;2023-07-28T12:33:20;6.72;;;3.67;;
72920;SDS011;61064;51.654;5.476;2023-07-28T12:35:47;6.68;;;3.50;;
72920;SDS011;61064;51.654;5.476;2023-07-28T12:38:15;5.87;;;3.23;;
72920;SDS011;61064;51.654;5.476;2023-07-28T12:40:40;7.22;;;3.55;;
72920;SDS011;61064;51.654;5.476;2023-07-28T12:43:06;7.60;;;3.80;;
72920;SDS011;61064;51.654;5.476;2023-07-28T12:45:31;6.60;;;3.63;;
72920;SDS011;61064;51.654;5.476;2023-07-28T12:47:57;7.37;;;3.90;;
72920;SDS011;61064;51.654;5.476;2023-07-28T12:50:22;8.35;;;4.10;;
72920;SDS011;61064;51.654;5.476;2023-07-28T12:52:49;8.02;;;4.40;;
72920;SDS011;61064;51.654;5.476;2023-07-28T12:55:18;7.50;;;4.30;;
72920;SDS011;61064;51.654;5.476;2023-07-28T12:57:44;7.32;;;3.28;;
72920;SDS011;61064;51.654;5.476;2023-07-28T13:00:09;5.68;;;2.55;;
72920;SDS011;61064;51.654;5.476;2023-07-28T13:02:42;5.78;;;2.30;;
72920;SDS011;61064;51.654;5.476;2023-07-28T13:05:09;5.60;;;2.10;;
72920;SDS011;61064;51.654;5.476;2023-07-28T13:07:36;5.50;;;2.20;;
72920;SDS011;61064;51.654;5.476;2023-07-28T13:10:02;6.20;;;2.20;;
72920;SDS011;61064;51.654;5.476;2023-07-28T13:12:28;5.45;;;1.98;;
72920;SDS011;61064;51.654;5.476;2023-07-28T13:14:54;6.80;;;1.60;;
72920;SDS011;61064;51.654;5.476;2023-07-28T13:17:19;5.13;;;1.70;;
72920;SDS011;61064;51.654;5.476;2023-07-28T13:19:44;5.13;;;1.50;;
72920;SDS011;61064;51.654;5.476;2023-07-28T13:22:10;4.20;;;1.50;;
72920;SDS011;61064;51.654;5.476;2023-07-28T13:24:35;4.63;;;1.50;;
72920;SDS011;61064;51.654;5.476;2023-07-28T13:27:03;5.07;;;1.50;;
72920;SDS011;61064;51.654;5.476;2023-07-28T13:29:29;6.28;;;1.80;;
72920;SDS011;61064;51.654;5.476;2023-07-28T13:31:57;7.20;;;1.70;;
72920;SDS011;61064;51.654;5.476;2023-07-28T13:34:24;5.03;;;1.60;;
72920;SDS011;61064;51.654;5.476;2023-07-28T13:36:58;4.43;;;1.30;;
72920;SDS011;61064;51.654;5.476;2023-07-28T13:39:24;5.45;;;1.70;;
72920;SDS011;61064;51.654;5.476;2023-07-28T13:41:57;4.40;;;1.23;;
72920;SDS011;61064;51.654;5.476;2023-07-28T13:44:22;5.87;;;1.50;;
72920;SDS011;61064;51.654;5.476;2023-07-28T13:46:48;4.90;;;1.40;;
72920;SDS011;61064;51.654;5.476;2023-07-28T13:49:16;4.73;;;1.50;;
72920;SDS011;61064;51.654;5.476;2023-07-28T13:51:42;4.00;;;1.40;;
72920;SDS011;61064;51.654;5.476;2023-07-28T13:54:09;5.93;;;1.63;;
72920;SDS011;61064;51.654;5.476;2023-07-28T13:56:36;5.20;;;1.45;;
72920;SDS011;61064;51.654;5.476;2023-07-28T13:59:01;7.90;;;1.73;;
72920;SDS011;61064;51.654;5.476;2023-07-28T14:01:30;4.40;;;1.40;;
72920;SDS011;61064;51.654;5.476;2023-07-28T14:03:58;5.53;;;1.77;;
72920;SDS011;61064;51.654;5.476;2023-07-28T14:06:23;5.60;;;1.70;;
72920;SDS011;61064;51.654;5.476;2023-07-28T14:08:49;5.50;;;2.00;;
72920;SDS011;61064;51.654;5.476;2023-07-28T14:11:14;6.30;;;1.70;;
72920;SDS011;61064;51.654;5.476;2023-07-28T14:13:41;5.57;;;1.95;;
72920;SDS011;61064;51.654;5.476;2023-07-28T14:16:07;4.50;;;1.60;;
72920;SDS011;61064;51.654;5.476;2023-07-28T14:18:34;4.82;;;1.13;;
72920;SDS011;61064;51.654;5.476;2023-07-28T14:21:00;3.13;;;1.10;;
72920;SDS011;61064;51.654;5.476;2023-07-28T14:23:27;5.13;;;1.30;;
72920;SDS011;61064;51.654;5.476;2023-07-28T14:25:53;5.10;;;1.40;;
72920;SDS011;61064;51.654;5.476;2023-07-28T14:28:21;4.97;;;1.45;;
72920;SDS011;61064;51.654;5.476;2023-07-28T14:30:47;4.07;;;1.23;;
72920;SDS011;61064;51.654;5.476;2023-07-28T14:33:16;5.20;;;1.70;;
72920;SDS011;61064;51.654;5.476;2023-07-28T14:35:48;4.80;;;1.70;;
72920;SDS011;61064;51.654;5.476;2023-07-28T14:38:14;5.05;;;1.50;;
72920;SDS011;61064;51.654;5.476;2023-07-28T14:40:40;5.00;;;1.67;;
72920;SDS011;61064;51.654;5.476;2023-07-28T14:43:06;4.72;;;1.40;;